Tonopah, Nevada Weather observations

Data are for observation ending at time listed.
 Day   Time    Ave.   Ave.  Ave.  Vector   Max.   Stn.    Total    Solar   Ave.  
  of    of     Air    Rel.  Wind   Wind    Wind   Baro.  Precip.   Rad.    Soil  
Year   Day     Temp.  Hum.  Speed  Dir.    Gust   Pres.                    Temp. 
2014   (PST)    F      %     mph   deg.    mph     mb.     in.     W/m2     F   
------------------------------------------------------------------------------
 244   19:30   73.0    19    1.8   296      2.9   812.3    0.00       0    83.5
 244   19:40   72.8    19    1.3   109      2.7   812.3    0.00       0    83.2
 244   19:50   72.6    19    2.3   116      3.0   812.4    0.00       0    83.0
 244   20:00   74.0    17    4.2   184      8.6   812.5    0.00       0    82.8
 244   20:10   75.7    14    3.8   180      6.0   812.7    0.00       0    82.5
 244   20:20   74.0    15    3.2   160      5.0   812.7    0.00       0    82.3
 244   20:30   74.5    14    4.4   171      6.6   812.8    0.00       0    82.1
 244   20:40   75.6    13    5.3   177      8.0   812.7    0.00       0    81.9
 244   20:50   75.1    14    5.1   181      9.0   812.7    0.00       0    81.7
 244   21:00   75.5    13    6.1   187      9.9   812.7    0.00       0    81.5
 244   21:10   76.1    13    6.9   193     12.3   812.7    0.00       0    81.3
 244   21:20   76.4    13    6.8   203     11.8   812.7    0.00       0    81.1
 244   21:30   77.1    13    5.5   211     11.8   812.7    0.00       0    80.9
 244   21:40   77.5    12    5.5   214     14.8   812.7    0.00       0    80.7
 244   21:50   77.0    13    7.9   191     13.3   812.6    0.00       0    80.5
 244   22:00   77.2    13    6.1   205     11.8   812.7    0.00       0    80.3
 244   22:10   76.3    13    3.8   214      8.6   812.7    0.00       0    80.2
 244   22:20   73.7    15    2.9    19      6.9   812.7    0.00       0    80.0
 244   22:30   71.8    15    3.4    29      6.9   812.8    0.00       0    79.8
 244   22:40   70.8    16    2.5   218      3.9   812.7    0.00       0    79.7
 244   22:50   68.9    18    0.5   198      2.4   812.8    0.00       0    79.6
 244   23:00   68.1    19    1.4   131      3.1   812.7    0.00       0    79.4
 244   23:10   67.2    20    0.3   220      2.1   812.8    0.00       0    79.3
 244   23:20   65.7    21    0.4   220      1.2   812.8    0.00       0    79.1
 244   23:30   64.9    22    0.2   220      0.9   812.9    0.00       0    79.0
 244   23:40   65.3    21    0.0   220      0.1   812.9    0.00       0    78.8
 244   23:50   65.6    20    0.3   220      1.5   812.8    0.00       0    78.7
 245    0:00   65.5    20    0.9   220      2.0   812.8    0.00       0    78.5
 245    0:10   64.3    22    0.4   220      1.3   812.8    0.00       0    78.3
 245    0:20   63.2    23    2.0   108      3.2   812.8    0.00       0    78.2
 245    0:30   63.3    23    2.6   125      3.6   812.7    0.00       0    78.0
 245    0:40   62.9    23    1.4   132      2.9   812.7    0.00       0    77.8
 245    0:50   62.3    24    2.1   127      3.9   812.7    0.00       0    77.7
 245    1:00   63.1    23    2.8   116      3.7   812.7    0.00       0    77.5
 245    1:10   62.6    24    2.5   115      3.2   812.7    0.00       0    77.3
 245    1:20   62.2    24    2.6   112      3.7   812.7    0.00       0    77.2
 245    1:30   61.9    24    1.8   125      3.6   812.7    0.00       0    77.0
 245    1:40   61.7    25    1.1   150      2.3   812.7    0.00       0    76.9
 245    1:50   62.0    24    0.7   150      1.7   812.7    0.00       0    76.7
 245    2:00   61.8    25    1.6   149      3.0   812.8    0.00       0    76.6
 245    2:10   61.5    25    1.4   145      2.9   812.8    0.00       0    76.4
 245    2:20   60.8    26    1.4   145      2.1   812.8    0.00       0    76.3
 245    2:30   60.8    26    1.9   145      2.6   812.8    0.00       0    76.1
 245    2:40   60.4    26    2.1   146      3.2   812.8    0.00       0    76.0
 245    2:50   59.2    28    1.7   131      2.9   812.8    0.00       0    75.8
 245    3:00   59.3    28    1.8   126      2.6   812.8    0.00       0    75.7
 245    3:10   59.9    27    2.6   116      3.9   812.8    0.00       0    75.5
 245    3:20   60.4    26    1.6   107      3.6   812.8    0.00       0    75.4
 245    3:30   60.5    25    0.9    93      2.0   812.8    0.00       0    75.3
 245    3:40   60.1    26    0.9    93      2.0   812.8    0.00       0    75.1
 245    3:50   59.6    26    1.5   103      3.7   812.9    0.00       0    75.0
 245    4:00   59.8    26    2.2   111      3.4   813.0    0.00       0    74.9
 245    4:10   59.3    27    2.5   107      3.4   813.0    0.00       0    74.7
 245    4:20   59.2    26    2.0   112      3.0   813.0    0.00       0    74.6
 245    4:30   59.9    26    2.2   115      3.2   813.0    0.00       0    74.4
 245    4:40   60.2    25    3.2   138      4.5   813.0    0.00       0    74.3
 245    4:50   60.4    25    4.6   156      6.0   813.1    0.00       0    74.2
 245    5:00   61.9    24    4.4   154      6.6   813.2    0.00       0    74.0
 245    5:10   62.8    23    4.5   164      6.1   813.2    0.00       0    73.9
 245    5:20   62.7    23    4.5   155      6.4   813.3    0.00       3    73.8
 245    5:30   62.3    23    3.4   140      5.0   813.3    0.00       6    73.7
 245    5:40   61.8    24    4.7   152      6.6   813.3    0.00      12    73.6
 245    5:50   62.5    23    6.1   151      7.8   813.4    0.00      17    73.4
 245    6:00   63.5    23    5.5   153      7.3   813.5    0.00      65    73.3
 245    6:10   64.8    22    5.2   152      7.3   813.6    0.00     106    73.2
 245    6:20   65.8    22    3.9   148      6.3   813.6    0.00     141    73.1
 245    6:30   67.4    21    3.7   153      5.7   813.6    0.00     175    73.0
 245    6:40   68.3    20    3.8   161      5.8   813.7    0.00     210    73.0
 245    6:50   69.3    20    3.3   146      5.0   813.7    0.00     244    72.9
 245    7:00   70.7    18    3.5   128      6.1   813.7    0.00     279    73.0
 245    7:10   71.5    18    3.8   118      6.3   813.6    0.00     315    72.9
 245    7:20   71.9    18    4.8   118      7.8   813.6    0.00     352    73.0
 245    7:30   72.2    18    4.4   104      8.0   813.6    0.00     388    73.1
 245    7:40   72.7    17    3.9    88      7.5   813.5    0.00     424    73.1
 245    7:50   73.4    17    4.6    82      7.2   813.5    0.00     460    73.3
 245    8:00   73.1    17    4.7    76      8.0   813.6    0.00     495    73.5
 245    8:10   73.5    17    5.0    77      8.0   813.5    0.00     529    73.7
 245    8:20   73.7    17    5.7    90      9.6   813.5    0.00     562    73.8
 245    8:30   73.8    17    6.3    96     10.6   813.5    0.00     595    74.1
 245    8:40   74.1    17    5.7    87     10.1   813.5    0.00     627    74.3
 245    8:50   75.0    16    5.9   100     11.9   813.5    0.00     657    74.6
 245    9:00   75.0    16    6.1    96     11.7   813.4    0.00     686    74.8
 245    9:10   75.5    16    6.4    99     11.5   813.4    0.00     714    75.1
 245    9:20   75.6    16    7.0    99     11.5   813.4    0.00     741    75.4
 245    9:30   76.2    16    6.1   110     11.2   813.4    0.00     766    75.7
 245    9:40   77.4    15    6.0   114     10.4   813.3    0.00     789    75.9
 245    9:50   78.1    15    6.4   113     14.0   813.2    0.00     812    76.2
 245   10:00   79.1    14    7.0   135     13.0   813.2    0.00     833    76.5
 245   10:10   79.8    14    6.9   123     15.1   813.1    0.00     852    76.8
 245   10:20   80.0    14    7.7   122     13.3   813.1    0.00     869    77.1
 245   10:30   80.5    14    7.6   140     13.4   813.1    0.00     886    77.4
 245   10:40   81.2    14    6.3   141     13.2   813.0    0.00     900    77.8
 245   10:50   81.6    13    7.9   147     17.0   812.8    0.00     911    78.1
 245   11:00   81.7    13    9.7   152     29.6   812.7    0.00     923    78.5
 245   11:10   82.5    13    8.6   163     22.9   812.6    0.00     934    78.9
 245   11:20   83.2    12    8.2   159     14.2   812.5    0.00     940    79.2
 245   11:30   83.0    12    8.4   148     14.7   812.5    0.00     946    79.6
 245   11:40   83.2    12    9.9   172     17.2   812.4    0.00     950    80.1
 245   11:50   83.6    12    7.6   143     13.1   812.2    0.00     952    80.5
 245   12:00   83.7    12    8.6   174     15.2   812.2    0.00     952    80.9
 245   12:10   84.1    12    8.5   159     18.3   812.1    0.00     948    81.3
 245   12:20   83.9    12    9.0   175     14.9   812.0    0.00     946    81.7
 245   12:30   84.0    12    8.9   160     15.9   811.9    0.00     939    82.1
 245   12:40   84.5    12    8.1   149     15.5   811.8    0.00     932    82.5
 245   12:50   84.3    12    9.0   173     16.9   811.7    0.00     925    82.9
 245   13:00   85.2    12    9.7   166     19.3   811.5    0.00     915    83.2
 245   13:10   84.9    12    7.1   181     18.1   811.5    0.00     902    83.6
 245   13:20   85.6    12    6.7   141     13.4   811.3    0.00     883    83.9
 245   13:30   86.0    12    9.7   152     17.8   811.2    0.00     870    84.3
 245   13:40   85.9    11    9.8   172     21.2   811.1    0.00     853    84.6
 245   13:50   85.6    11    5.7   184     11.6   810.9    0.00     834    84.9
 245   14:00   86.1    11    8.1   169     17.9   810.7    0.00     813    85.2
 245   14:10   86.1    11    8.2   170     18.2   810.5    0.00     789    85.4
 245   14:20   86.3    10    8.3   158     17.8   810.4    0.00     771    85.7
 245   14:30   86.3    10    6.3   190     16.4   810.3    0.00     747    85.9
 245   14:40   87.1    10    4.9   221     12.6   810.2    0.00     723    86.1
 245   14:50   86.4    10    5.9   203     13.4   810.1    0.00     691    86.4
 245   15:00   87.4    10    5.0   154     16.0   809.9    0.00     666    86.5
 245   15:10   86.7    10    6.8   238     20.3   809.9    0.00     634    86.7
 245   15:20   86.5    10    5.0   228     10.2   809.8    0.00     603    86.8
 245   15:30   86.6    10    3.1   155      7.3   809.7    0.00     571    86.9
 245   15:40   87.2    10    3.0   201      7.1   809.6    0.00     539    87.0
 245   15:50   87.3    10    6.0   211     16.7   809.6    0.00     505    87.1
 245   16:00   87.0     9    4.7   165      8.1   809.5    0.00     470    87.2
 245   16:10   87.2     9    4.6   162      8.2   809.5    0.00     434    87.2
 245   16:20   87.2    10    2.7   130      7.5   809.4    0.00     396    87.1
 245   16:30   87.1    10    4.3   164      7.7   809.3    0.00     359    87.1
 245   16:40   86.6    10    5.7   199     10.7   809.3    0.00     323    87.0
 245   16:50   86.6    10    4.1   171      9.7   809.2    0.00     287    86.7
 245   17:00   86.2    11    6.8   168     12.4   809.2    0.00     250    86.6
 245   17:10   85.9    11    5.3   168     10.7   809.2    0.00     215    86.5
 245   17:20   84.9    11    8.7   154     17.0   809.2    0.00     180    86.3
 245   17:30   84.3    12    8.5   158     17.0   809.1    0.00     147    86.2
 245   17:40   84.2    12    7.3   179     12.1   809.0    0.00     114    86.0
 245   17:50   83.5    12    6.6   171     12.4   809.0    0.00      76    85.8
 245   18:00   82.6    12    7.0   168     13.4   809.0    0.00      44    85.6
 245   18:10   81.8    13    8.2   177     19.1   809.0    0.00      18    85.4
 245   18:20   80.9    14    8.1   170     14.9   809.0    0.00       7    85.2
 245   18:30   79.9    14    7.8   170     15.0   809.1    0.00       3    85.0
 245   18:40   79.3    15    8.6   157     16.7   809.2    0.00       0    84.8
 245   18:50   78.4    16    7.7   158     14.8   809.2    0.00       0    84.5
 245   19:00   77.9    16    6.9   162     11.8   809.3    0.00       0    84.3
 245   19:10   77.6    16    7.6   164     16.5   809.4    0.00       0    84.1
 245   19:20   77.3    17    7.8   158     14.4   809.5    0.00       0    83.9

Return to Tonopah, Nevada graphs page.


Western Regional Climate Center,wrcc@dri.edu